ABY392 OMSJ-OOSA
Flight info
| Callsign | ABY392 |
|---|---|
| Flight time | 1h 53m |
| Altitude | 37000 |
| Route | ANVIX R401 GIDIS G783 UKRAG L710 KUKDI/N0453F360 B400 ASTUN |
| Aircraft | A320/M-SDE3FGHIRWY/LB1 |
Departure
| Time | 2026-05-04 11:25 |
|---|---|
| Airport | Sharjah International Airport (OMSJ) |
Arrival
| Time | 2026-05-04 13:18 |
|---|---|
| Airport | Salalah International Airport (OOSA) |
| Time | Latitude | Longitude | Altitude | Speed | Heading |
|---|---|---|---|---|---|
| 2026-05-04 11:12 | 25.32250 | 55.52134 | 115 ft | 0 kts | 212° |
| 2026-05-04 11:19 | 25.32367 | 55.52205 | 111 ft | 4 kts | 164° |
| 2026-05-04 11:19 | 25.32390 | 55.52191 | 114 ft | 4 kts | 133° |
| 2026-05-04 11:19 | 25.32404 | 55.52171 | 111 ft | 1 kts | 122° |
| 2026-05-04 11:22 | 25.32253 | 55.52437 | 113 ft | 13 kts | 120° |
| 2026-05-04 11:22 | 25.32294 | 55.52521 | 114 ft | 15 kts | 32° |
| 2026-05-04 11:23 | 25.32373 | 55.52577 | 115 ft | 12 kts | 33° |
| 2026-05-04 11:23 | 25.32439 | 55.52623 | 114 ft | 10 kts | 32° |
| 2026-05-04 11:24 | 25.33420 | 55.51205 | 114 ft | 155 kts | 302° |
| 2026-05-04 11:25 | 25.34057 | 55.50115 | 409 ft | 177 kts | 303° |
| 2026-05-04 11:25 | 25.34736 | 55.48973 | 1093 ft | 178 kts | 302° |
| 2026-05-04 11:25 | 25.35426 | 55.47767 | 1512 ft | 196 kts | 302° |
| 2026-05-04 11:26 | 25.37031 | 55.44945 | 2141 ft | 237 kts | 302° |
| 2026-05-04 11:27 | 25.46979 | 55.44053 | 7058 ft | 279 kts | 35° |
| 2026-05-04 11:28 | 25.48505 | 55.45407 | 7733 ft | 285 kts | 43° |
| 2026-05-04 11:28 | 25.49613 | 55.47254 | 8396 ft | 295 kts | 68° |
| 2026-05-04 11:28 | 25.49911 | 55.49524 | 9046 ft | 306 kts | 94° |
| 2026-05-04 11:28 | 25.49255 | 55.51784 | 9689 ft | 315 kts | 121° |
| 2026-05-04 11:29 | 25.47732 | 55.53539 | 10203 ft | 325 kts | 147° |
| 2026-05-04 11:29 | 25.45716 | 55.54833 | 10338 ft | 347 kts | 152° |
| 2026-05-04 11:29 | 25.43510 | 55.56114 | 10457 ft | 369 kts | 153° |
| 2026-05-04 11:29 | 25.41195 | 55.57412 | 10599 ft | 386 kts | 154° |
| 2026-05-04 11:31 | 25.23775 | 55.67444 | 14294 ft | 414 kts | 153° |
| 2026-05-04 11:33 | 25.05479 | 55.78024 | 17604 ft | 436 kts | 153° |
| 2026-05-04 11:33 | 25.02785 | 55.79581 | 18048 ft | 439 kts | 152° |
| 2026-05-04 11:33 | 25.00068 | 55.81155 | 18430 ft | 443 kts | 152° |
| 2026-05-04 11:34 | 24.97324 | 55.82745 | 18843 ft | 445 kts | 153° |
| 2026-05-04 11:34 | 24.94578 | 55.84337 | 19275 ft | 446 kts | 153° |
| 2026-05-04 11:34 | 24.91821 | 55.85932 | 19699 ft | 448 kts | 153° |
| 2026-05-04 11:34 | 24.89090 | 55.87509 | 20105 ft | 450 kts | 153° |
| 2026-05-04 11:35 | 24.86311 | 55.89108 | 20543 ft | 452 kts | 153° |
| 2026-05-04 11:35 | 24.83508 | 55.90718 | 20914 ft | 455 kts | 154° |
| 2026-05-04 11:35 | 24.80643 | 55.92211 | 21274 ft | 456 kts | 161° |
| 2026-05-04 11:35 | 24.77606 | 55.93198 | 21728 ft | 455 kts | 170° |
| 2026-05-04 11:36 | 24.74466 | 55.93637 | 22095 ft | 454 kts | 180° |
| 2026-05-04 11:36 | 24.71312 | 55.93601 | 22493 ft | 454 kts | 183° |
| 2026-05-04 11:36 | 24.68146 | 55.93513 | 22870 ft | 456 kts | 184° |
| 2026-05-04 11:36 | 24.64980 | 55.93350 | 23273 ft | 455 kts | 189° |
| 2026-05-04 11:37 | 24.61889 | 55.92681 | 23592 ft | 453 kts | 199° |
| 2026-05-04 11:37 | 24.58963 | 55.91443 | 23889 ft | 450 kts | 209° |
| 2026-05-04 11:37 | 24.56286 | 55.89662 | 24185 ft | 449 kts | 219° |
| 2026-05-04 11:37 | 24.53900 | 55.87453 | 24476 ft | 448 kts | 224° |
| 2026-05-04 11:38 | 24.51589 | 55.85205 | 24776 ft | 450 kts | 224° |
| 2026-05-04 11:38 | 24.49232 | 55.82932 | 25061 ft | 451 kts | 224° |
| 2026-05-04 11:38 | 24.46861 | 55.80656 | 25357 ft | 453 kts | 224° |
| 2026-05-04 11:38 | 24.44484 | 55.78377 | 25631 ft | 454 kts | 224° |
| 2026-05-04 11:39 | 24.42102 | 55.76093 | 25933 ft | 455 kts | 224° |
| 2026-05-04 11:39 | 24.39712 | 55.73805 | 26208 ft | 456 kts | 224° |
| 2026-05-04 11:40 | 24.24806 | 55.60608 | 27762 ft | 471 kts | 208° |
| 2026-05-04 11:41 | 24.21719 | 55.59362 | 28172 ft | 473 kts | 199° |
| 2026-05-04 11:41 | 24.18547 | 55.58421 | 28546 ft | 472 kts | 199° |
| 2026-05-04 11:41 | 24.15369 | 55.57473 | 28894 ft | 471 kts | 199° |
| 2026-05-04 11:41 | 24.12205 | 55.56526 | 29254 ft | 470 kts | 200° |
| 2026-05-04 11:42 | 24.09043 | 55.55580 | 29608 ft | 469 kts | 200° |
| 2026-05-04 11:42 | 24.05943 | 55.54653 | 29943 ft | 469 kts | 200° |
| 2026-05-04 11:42 | 24.02808 | 55.53716 | 30243 ft | 468 kts | 200° |
| 2026-05-04 11:42 | 23.99664 | 55.52775 | 30534 ft | 467 kts | 200° |
| 2026-05-04 11:43 | 23.96526 | 55.51834 | 30838 ft | 466 kts | 200° |
| 2026-05-04 11:43 | 23.93404 | 55.50902 | 31153 ft | 465 kts | 200° |
| 2026-05-04 11:43 | 23.90280 | 55.49976 | 31461 ft | 464 kts | 200° |
| 2026-05-04 11:43 | 23.87166 | 55.49057 | 31766 ft | 463 kts | 200° |
| 2026-05-04 11:44 | 23.84053 | 55.48138 | 32074 ft | 463 kts | 200° |
| 2026-05-04 11:44 | 23.80951 | 55.47216 | 32361 ft | 462 kts | 200° |
| 2026-05-04 11:44 | 23.77852 | 55.46291 | 32652 ft | 462 kts | 200° |
| 2026-05-04 11:44 | 23.74751 | 55.45366 | 32952 ft | 461 kts | 200° |
| 2026-05-04 11:45 | 23.71690 | 55.44454 | 33258 ft | 461 kts | 200° |
| 2026-05-04 11:45 | 23.68599 | 55.43538 | 33543 ft | 460 kts | 200° |
| 2026-05-04 11:45 | 23.65514 | 55.42627 | 33831 ft | 460 kts | 200° |
| 2026-05-04 11:45 | 23.62427 | 55.41716 | 34094 ft | 459 kts | 200° |
| 2026-05-04 11:46 | 23.59345 | 55.40807 | 34353 ft | 459 kts | 200° |
| 2026-05-04 11:46 | 23.56267 | 55.39900 | 34602 ft | 459 kts | 199° |
| 2026-05-04 11:46 | 23.53104 | 55.39295 | 34841 ft | 465 kts | 189° |
| 2026-05-04 11:46 | 23.49859 | 55.39286 | 35076 ft | 471 kts | 179° |
| 2026-05-04 11:47 | 23.46609 | 55.39899 | 35284 ft | 476 kts | 169° |
| 2026-05-04 11:47 | 23.44486 | 55.40518 | 35428 ft | 476 kts | 169° |
| 2026-05-04 11:47 | 23.40242 | 55.41759 | 35733 ft | 476 kts | 168° |
| 2026-05-04 11:47 | 23.38089 | 55.42414 | 35882 ft | 476 kts | 168° |
| 2026-05-04 11:48 | 23.33874 | 55.43745 | 36165 ft | 476 kts | 167° |
| 2026-05-04 11:48 | 23.31728 | 55.44438 | 36303 ft | 476 kts | 167° |
| 2026-05-04 11:48 | 23.28703 | 55.45418 | 36491 ft | 475 kts | 167° |
| 2026-05-04 11:48 | 23.25534 | 55.46437 | 36687 ft | 475 kts | 167° |
| 2026-05-04 11:49 | 23.22352 | 55.47450 | 36771 ft | 477 kts | 167° |
| 2026-05-04 11:49 | 23.15939 | 55.49474 | 36773 ft | 479 kts | 167° |
| 2026-05-04 11:50 | 23.09532 | 55.51484 | 36775 ft | 480 kts | 167° |
| 2026-05-04 11:50 | 23.03116 | 55.53498 | 36766 ft | 480 kts | 167° |
| 2026-05-04 11:51 | 22.96697 | 55.55484 | 36768 ft | 479 kts | 168° |
| 2026-05-04 11:51 | 22.90260 | 55.57453 | 36757 ft | 479 kts | 167° |
| 2026-05-04 11:52 | 22.83873 | 55.59409 | 36763 ft | 480 kts | 167° |
| 2026-05-04 11:52 | 22.77442 | 55.61375 | 36762 ft | 480 kts | 167° |
| 2026-05-04 11:53 | 22.71000 | 55.63352 | 36767 ft | 481 kts | 167° |
| 2026-05-04 11:53 | 22.64562 | 55.65324 | 36760 ft | 481 kts | 167° |
| 2026-05-04 11:55 | 22.38800 | 55.73198 | 36766 ft | 480 kts | 167° |
| 2026-05-04 11:56 | 22.32393 | 55.75153 | 36756 ft | 480 kts | 167° |
| 2026-05-04 11:56 | 22.25949 | 55.77019 | 36748 ft | 477 kts | 173° |
| 2026-05-04 11:57 | 22.19365 | 55.77779 | 36754 ft | 474 kts | 178° |
| 2026-05-04 11:57 | 22.12787 | 55.78434 | 36756 ft | 474 kts | 178° |
| 2026-05-04 11:58 | 22.06256 | 55.79092 | 36741 ft | 474 kts | 178° |
| 2026-05-04 11:58 | 21.99681 | 55.79751 | 36748 ft | 474 kts | 178° |
| 2026-05-04 11:59 | 21.94928 | 55.80220 | 36740 ft | 474 kts | 178° |
| 2026-05-04 11:59 | 21.88596 | 55.80841 | 36741 ft | 474 kts | 178° |
| 2026-05-04 12:00 | 21.82021 | 55.81493 | 36747 ft | 474 kts | 178° |
| 2026-05-04 12:00 | 21.75453 | 55.82143 | 36746 ft | 474 kts | 178° |
| 2026-05-04 12:01 | 21.68923 | 55.82792 | 36749 ft | 474 kts | 178° |
| 2026-05-04 12:02 | 21.45984 | 55.85048 | 36749 ft | 473 kts | 177° |
| 2026-05-04 12:03 | 21.39425 | 55.85688 | 36744 ft | 474 kts | 177° |
| 2026-05-04 12:03 | 21.32853 | 55.86325 | 36741 ft | 474 kts | 177° |
| 2026-05-04 12:04 | 21.26288 | 55.86969 | 36742 ft | 474 kts | 177° |
| 2026-05-04 12:04 | 21.19730 | 55.87614 | 36743 ft | 474 kts | 177° |
| 2026-05-04 12:05 | 21.13159 | 55.88251 | 36743 ft | 473 kts | 177° |
| 2026-05-04 12:05 | 21.06607 | 55.88889 | 36733 ft | 473 kts | 177° |
| 2026-05-04 12:06 | 21.00058 | 55.89526 | 36734 ft | 473 kts | 177° |
| 2026-05-04 12:06 | 20.93546 | 55.90159 | 36733 ft | 472 kts | 177° |
| 2026-05-04 12:07 | 20.87000 | 55.90790 | 36728 ft | 472 kts | 177° |
| 2026-05-04 12:07 | 20.80446 | 55.91426 | 36726 ft | 472 kts | 177° |
| 2026-05-04 12:08 | 20.73898 | 55.92070 | 36722 ft | 472 kts | 177° |
| 2026-05-04 12:08 | 20.67362 | 55.92705 | 36717 ft | 471 kts | 177° |
| 2026-05-04 12:09 | 20.60833 | 55.93331 | 36716 ft | 472 kts | 177° |
| 2026-05-04 12:09 | 20.54334 | 55.93961 | 36717 ft | 471 kts | 177° |
| 2026-05-04 12:10 | 20.47805 | 55.94591 | 36722 ft | 471 kts | 177° |
| 2026-05-04 12:10 | 20.41282 | 55.95220 | 36732 ft | 470 kts | 177° |
| 2026-05-04 12:11 | 20.34762 | 55.95849 | 36733 ft | 470 kts | 177° |
| 2026-05-04 12:11 | 20.28242 | 55.96474 | 36730 ft | 470 kts | 176° |
| 2026-05-04 12:12 | 20.21731 | 55.97095 | 36728 ft | 469 kts | 177° |
| 2026-05-04 12:12 | 20.15226 | 55.97709 | 36728 ft | 469 kts | 177° |
| 2026-05-04 12:14 | 19.89226 | 55.98830 | 36735 ft | 467 kts | 181° |
| 2026-05-04 12:15 | 19.82723 | 55.98974 | 36736 ft | 467 kts | 180° |
| 2026-05-04 12:15 | 19.76267 | 55.99156 | 36737 ft | 466 kts | 180° |
| 2026-05-04 12:16 | 19.69787 | 55.99332 | 36734 ft | 465 kts | 180° |
| 2026-05-04 12:16 | 19.63314 | 55.99488 | 36738 ft | 464 kts | 180° |
| 2026-05-04 12:17 | 19.56858 | 55.99649 | 36736 ft | 464 kts | 180° |
| 2026-05-04 12:17 | 19.50490 | 55.98968 | 36729 ft | 459 kts | 197° |
| 2026-05-04 12:18 | 19.44700 | 55.96220 | 36721 ft | 456 kts | 211° |
| 2026-05-04 12:18 | 19.39235 | 55.92890 | 36718 ft | 456 kts | 211° |
| 2026-05-04 12:19 | 19.33713 | 55.89546 | 36720 ft | 457 kts | 211° |
| 2026-05-04 12:19 | 19.28182 | 55.86202 | 36724 ft | 457 kts | 211° |
| 2026-05-04 12:20 | 19.22660 | 55.82860 | 36726 ft | 458 kts | 211° |
| 2026-05-04 12:20 | 19.17124 | 55.79517 | 36729 ft | 458 kts | 211° |
| 2026-05-04 12:21 | 19.11587 | 55.76173 | 36727 ft | 458 kts | 211° |
| 2026-05-04 12:21 | 19.06053 | 55.72833 | 36732 ft | 458 kts | 211° |
| 2026-05-04 12:22 | 19.00552 | 55.69514 | 36730 ft | 458 kts | 211° |
| 2026-05-04 12:22 | 18.95025 | 55.66180 | 36737 ft | 458 kts | 211° |
| 2026-05-04 12:23 | 18.89487 | 55.62842 | 36734 ft | 458 kts | 211° |
| 2026-05-04 12:23 | 18.83944 | 55.59511 | 36734 ft | 458 kts | 210° |
| 2026-05-04 12:24 | 18.78410 | 55.56185 | 36737 ft | 458 kts | 211° |
| 2026-05-04 12:24 | 18.72876 | 55.52859 | 36739 ft | 458 kts | 210° |
| 2026-05-04 12:25 | 18.67370 | 55.49556 | 36737 ft | 458 kts | 211° |
| 2026-05-04 12:25 | 18.61824 | 55.46228 | 36737 ft | 458 kts | 210° |
| 2026-05-04 12:26 | 18.56280 | 55.42904 | 36737 ft | 459 kts | 210° |
| 2026-05-04 12:26 | 18.50737 | 55.39583 | 36739 ft | 459 kts | 210° |
| 2026-05-04 12:27 | 18.45181 | 55.36255 | 36736 ft | 459 kts | 210° |
| 2026-05-04 12:27 | 18.39632 | 55.32938 | 36737 ft | 458 kts | 210° |
| 2026-05-04 12:28 | 18.34120 | 55.29648 | 36740 ft | 458 kts | 210° |
| 2026-05-04 12:28 | 18.28561 | 55.26336 | 36738 ft | 459 kts | 210° |
| 2026-05-04 12:29 | 18.23010 | 55.23026 | 36745 ft | 458 kts | 210° |
| 2026-05-04 12:29 | 18.17467 | 55.19721 | 36751 ft | 458 kts | 210° |
| 2026-05-04 12:30 | 18.11802 | 55.16695 | 36751 ft | 458 kts | 204° |
| 2026-05-04 12:30 | 18.05949 | 55.14064 | 36749 ft | 457 kts | 204° |
| 2026-05-04 12:31 | 18.00102 | 55.11438 | 36750 ft | 457 kts | 204° |
| 2026-05-04 12:31 | 17.94293 | 55.08825 | 36748 ft | 457 kts | 204° |
| 2026-05-04 12:32 | 17.85519 | 55.04882 | 36754 ft | 457 kts | 204° |
| 2026-05-04 12:33 | 17.79668 | 55.02263 | 36766 ft | 457 kts | 204° |
| 2026-05-04 12:33 | 17.73817 | 54.99648 | 36767 ft | 457 kts | 204° |
| 2026-05-04 12:34 | 17.67958 | 54.97032 | 36779 ft | 458 kts | 204° |
| 2026-05-04 12:34 | 17.62133 | 54.94426 | 36778 ft | 458 kts | 204° |
| 2026-05-04 12:35 | 17.56269 | 54.91798 | 36778 ft | 458 kts | 204° |
| 2026-05-04 12:35 | 17.50402 | 54.89183 | 36797 ft | 458 kts | 204° |
| 2026-05-04 12:36 | 17.44545 | 54.86567 | 36794 ft | 457 kts | 204° |
| 2026-05-04 12:36 | 17.38735 | 54.83965 | 36814 ft | 457 kts | 204° |
| 2026-05-04 12:37 | 17.32879 | 54.81363 | 36806 ft | 453 kts | 204° |
| 2026-05-04 12:37 | 17.30024 | 54.80098 | 36811 ft | 438 kts | 204° |
| 2026-05-04 12:37 | 17.27265 | 54.78872 | 36812 ft | 423 kts | 205° |
| 2026-05-04 12:37 | 17.24757 | 54.77338 | 36812 ft | 412 kts | 221° |
| 2026-05-04 12:38 | 17.22833 | 54.75156 | 36818 ft | 408 kts | 238° |
| 2026-05-04 12:38 | 17.21598 | 54.72500 | 36820 ft | 406 kts | 254° |
| 2026-05-04 12:38 | 17.21067 | 54.69601 | 36819 ft | 407 kts | 268° |
| 2026-05-04 12:38 | 17.21231 | 54.66690 | 36819 ft | 406 kts | 281° |
| 2026-05-04 12:39 | 17.22039 | 54.63859 | 36831 ft | 407 kts | 294° |
| 2026-05-04 12:39 | 17.23437 | 54.61294 | 36819 ft | 406 kts | 307° |
| 2026-05-04 12:39 | 17.25362 | 54.59136 | 36822 ft | 407 kts | 320° |
| 2026-05-04 12:39 | 17.27721 | 54.57501 | 36808 ft | 408 kts | 334° |
| 2026-05-04 12:40 | 17.30380 | 54.56492 | 36801 ft | 409 kts | 348° |
| 2026-05-04 12:40 | 17.33201 | 54.56174 | 36792 ft | 409 kts | 1° |
| 2026-05-04 12:40 | 17.36027 | 54.56565 | 36789 ft | 411 kts | 14° |
| 2026-05-04 12:40 | 17.38697 | 54.57643 | 36768 ft | 413 kts | 28° |
| 2026-05-04 12:41 | 17.41058 | 54.59355 | 36764 ft | 414 kts | 42° |
| 2026-05-04 12:41 | 17.42965 | 54.61608 | 36762 ft | 416 kts | 56° |
| 2026-05-04 12:41 | 17.44330 | 54.64241 | 36764 ft | 416 kts | 65° |
| 2026-05-04 12:42 | 17.46411 | 54.69927 | 36766 ft | 419 kts | 72° |
| 2026-05-04 12:42 | 17.47863 | 54.74775 | 36767 ft | 420 kts | 72° |
| 2026-05-04 12:43 | 17.49621 | 54.80620 | 36765 ft | 421 kts | 71° |
| 2026-05-04 12:43 | 17.51085 | 54.86551 | 36764 ft | 421 kts | 88° |
| 2026-05-04 12:43 | 17.50821 | 54.89593 | 36762 ft | 420 kts | 105° |
| 2026-05-04 12:44 | 17.49749 | 54.92417 | 36762 ft | 418 kts | 122° |
| 2026-05-04 12:44 | 17.47968 | 54.94810 | 36759 ft | 415 kts | 139° |
| 2026-05-04 12:44 | 17.45679 | 54.96562 | 36751 ft | 413 kts | 154° |
| 2026-05-04 12:44 | 17.43010 | 54.97615 | 36761 ft | 411 kts | 169° |
| 2026-05-04 12:45 | 17.40176 | 54.97874 | 36763 ft | 408 kts | 186° |
| 2026-05-04 12:45 | 17.37395 | 54.97326 | 36761 ft | 406 kts | 201° |
| 2026-05-04 12:45 | 17.34875 | 54.96024 | 36762 ft | 404 kts | 217° |
| 2026-05-04 12:45 | 17.32793 | 54.94080 | 36773 ft | 402 kts | 232° |
| 2026-05-04 12:46 | 17.31276 | 54.91638 | 36773 ft | 400 kts | 246° |
| 2026-05-04 12:46 | 17.29182 | 54.86167 | 36809 ft | 406 kts | 252° |
| 2026-05-04 12:47 | 17.27483 | 54.80590 | 36769 ft | 406 kts | 253° |
| 2026-05-04 12:47 | 17.26700 | 54.77781 | 36406 ft | 403 kts | 260° |
| 2026-05-04 12:47 | 17.26523 | 54.74883 | 36017 ft | 399 kts | 276° |
| 2026-05-04 12:47 | 17.27118 | 54.72073 | 35637 ft | 395 kts | 292° |
| 2026-05-04 12:48 | 17.28437 | 54.69576 | 35242 ft | 392 kts | 308° |
| 2026-05-04 12:48 | 17.30370 | 54.67586 | 34837 ft | 391 kts | 323° |
| 2026-05-04 12:48 | 17.32770 | 54.66257 | 34420 ft | 391 kts | 340° |
| 2026-05-04 12:48 | 17.35432 | 54.65718 | 34006 ft | 392 kts | 358° |
| 2026-05-04 12:49 | 17.38137 | 54.65999 | 33557 ft | 392 kts | 14° |
| 2026-05-04 12:49 | 17.40651 | 54.67070 | 33073 ft | 392 kts | 31° |
| 2026-05-04 12:49 | 17.42768 | 54.68844 | 32675 ft | 389 kts | 48° |
| 2026-05-04 12:49 | 17.44302 | 54.71153 | 32264 ft | 386 kts | 64° |
| 2026-05-04 12:50 | 17.45366 | 54.73689 | 31840 ft | 385 kts | 69° |
| 2026-05-04 12:50 | 17.46284 | 54.76306 | 31463 ft | 382 kts | 71° |
| 2026-05-04 12:50 | 17.47111 | 54.78944 | 31070 ft | 380 kts | 72° |
| 2026-05-04 12:50 | 17.47898 | 54.81576 | 30730 ft | 376 kts | 73° |
| 2026-05-04 12:51 | 17.48654 | 54.84184 | 30377 ft | 373 kts | 77° |
| 2026-05-04 12:51 | 17.48930 | 54.86872 | 30018 ft | 369 kts | 93° |
| 2026-05-04 12:51 | 17.48530 | 54.89510 | 29656 ft | 365 kts | 109° |
| 2026-05-04 12:51 | 17.47509 | 54.91910 | 29248 ft | 360 kts | 124° |
| 2026-05-04 12:52 | 17.45943 | 54.93925 | 28830 ft | 355 kts | 140° |
| 2026-05-04 12:52 | 17.43949 | 54.95415 | 28446 ft | 350 kts | 154° |
| 2026-05-04 12:52 | 17.41718 | 54.96299 | 28053 ft | 346 kts | 168° |
| 2026-05-04 12:52 | 17.39345 | 54.96565 | 27678 ft | 342 kts | 184° |
| 2026-05-04 12:53 | 17.37004 | 54.96204 | 27279 ft | 339 kts | 197° |
| 2026-05-04 12:53 | 17.34841 | 54.95255 | 26900 ft | 336 kts | 212° |
| 2026-05-04 12:53 | 17.32986 | 54.93784 | 26517 ft | 334 kts | 226° |
| 2026-05-04 12:53 | 17.31540 | 54.91895 | 26138 ft | 332 kts | 240° |
| 2026-05-04 12:54 | 17.30518 | 54.89741 | 25756 ft | 330 kts | 248° |
| 2026-05-04 12:54 | 17.29687 | 54.87503 | 25386 ft | 329 kts | 251° |
| 2026-05-04 12:54 | 17.28963 | 54.85264 | 25033 ft | 329 kts | 253° |
| 2026-05-04 12:54 | 17.28268 | 54.82987 | 24699 ft | 327 kts | 253° |
| 2026-05-04 12:55 | 17.27576 | 54.80720 | 24380 ft | 325 kts | 253° |
| 2026-05-04 12:55 | 17.26890 | 54.78466 | 24042 ft | 324 kts | 256° |
| 2026-05-04 12:55 | 17.26693 | 54.76143 | 23732 ft | 320 kts | 278° |
| 2026-05-04 12:55 | 17.27285 | 54.73931 | 23416 ft | 315 kts | 299° |
| 2026-05-04 12:56 | 17.28574 | 54.72106 | 23066 ft | 311 kts | 319° |
| 2026-05-04 12:56 | 17.30343 | 54.70897 | 22715 ft | 306 kts | 340° |
| 2026-05-04 12:56 | 17.32394 | 54.70398 | 22383 ft | 302 kts | 359° |
| 2026-05-04 12:56 | 17.34458 | 54.70653 | 22022 ft | 300 kts | 18° |
| 2026-05-04 12:57 | 17.36326 | 54.71640 | 21550 ft | 303 kts | 38° |
| 2026-05-04 12:57 | 17.37754 | 54.73248 | 21210 ft | 303 kts | 58° |
| 2026-05-04 12:57 | 17.38668 | 54.75230 | 20833 ft | 305 kts | 66° |
| 2026-05-04 12:57 | 17.39403 | 54.77301 | 20557 ft | 302 kts | 69° |
| 2026-05-04 12:58 | 17.40067 | 54.79381 | 20285 ft | 299 kts | 71° |
| 2026-05-04 12:58 | 17.40706 | 54.81455 | 19956 ft | 299 kts | 71° |
| 2026-05-04 12:58 | 17.41343 | 54.83523 | 19655 ft | 297 kts | 70° |
| 2026-05-04 12:58 | 17.41668 | 54.85621 | 19387 ft | 299 kts | 89° |
| 2026-05-04 12:59 | 17.41307 | 54.87766 | 19081 ft | 302 kts | 108° |
| 2026-05-04 12:59 | 17.40269 | 54.89668 | 18783 ft | 305 kts | 128° |
| 2026-05-04 12:59 | 17.38642 | 54.91110 | 18485 ft | 308 kts | 149° |
| 2026-05-04 12:59 | 17.36633 | 54.91868 | 18220 ft | 309 kts | 171° |
| 2026-05-04 13:00 | 17.34489 | 54.91846 | 17893 ft | 310 kts | 192° |
| 2026-05-04 13:00 | 17.32493 | 54.91034 | 17527 ft | 308 kts | 214° |
| 2026-05-04 13:00 | 17.30915 | 54.89569 | 17264 ft | 302 kts | 236° |
| 2026-05-04 13:00 | 17.29894 | 54.87680 | 16961 ft | 297 kts | 249° |
| 2026-05-04 13:01 | 17.29149 | 54.85689 | 16671 ft | 295 kts | 253° |
| 2026-05-04 13:01 | 17.28482 | 54.83660 | 16265 ft | 298 kts | 255° |
| 2026-05-04 13:01 | 17.27846 | 54.81612 | 15914 ft | 300 kts | 256° |
| 2026-05-04 13:01 | 17.27208 | 54.79540 | 15539 ft | 296 kts | 255° |
| 2026-05-04 13:02 | 17.26734 | 54.77504 | 15057 ft | 288 kts | 270° |
| 2026-05-04 13:02 | 17.26961 | 54.75465 | 14610 ft | 279 kts | 291° |
| 2026-05-04 13:02 | 17.27868 | 54.73706 | 14009 ft | 276 kts | 314° |
| 2026-05-04 13:02 | 17.29338 | 54.72447 | 13402 ft | 274 kts | 336° |
| 2026-05-04 13:03 | 17.31132 | 54.71854 | 12853 ft | 270 kts | 356° |
| 2026-05-04 13:03 | 17.32989 | 54.71983 | 12462 ft | 267 kts | 16° |
| 2026-05-04 13:03 | 17.34662 | 54.72791 | 12054 ft | 266 kts | 36° |
| 2026-05-04 13:03 | 17.35939 | 54.74182 | 11676 ft | 267 kts | 56° |
| 2026-05-04 13:04 | 17.36734 | 54.75938 | 11225 ft | 270 kts | 65° |
| 2026-05-04 13:04 | 17.37390 | 54.77810 | 10710 ft | 276 kts | 67° |
| 2026-05-04 13:04 | 17.37852 | 54.79758 | 10309 ft | 279 kts | 85° |
| 2026-05-04 13:04 | 17.37653 | 54.81784 | 9917 ft | 282 kts | 106° |
| 2026-05-04 13:05 | 17.36641 | 54.83537 | 9489 ft | 284 kts | 134° |
| 2026-05-04 13:05 | 17.35001 | 54.84604 | 9142 ft | 280 kts | 164° |
| 2026-05-04 13:05 | 17.33085 | 54.84762 | 8844 ft | 271 kts | 193° |
| 2026-05-04 13:05 | 17.31407 | 54.84004 | 8489 ft | 265 kts | 222° |
| 2026-05-04 13:06 | 17.30218 | 54.82576 | 8079 ft | 260 kts | 236° |
| 2026-05-04 13:06 | 17.29081 | 54.81103 | 7848 ft | 262 kts | 232° |
| 2026-05-04 13:06 | 17.27927 | 54.79615 | 7633 ft | 265 kts | 237° |
| 2026-05-04 13:06 | 17.26939 | 54.77990 | 7402 ft | 261 kts | 245° |
| 2026-05-04 13:07 | 17.26194 | 54.76255 | 7208 ft | 262 kts | 253° |
| 2026-05-04 13:07 | 17.25611 | 54.74492 | 7015 ft | 258 kts | 253° |
| 2026-05-04 13:07 | 17.25038 | 54.72736 | 6906 ft | 257 kts | 253° |
| 2026-05-04 13:07 | 17.24457 | 54.70957 | 6790 ft | 257 kts | 253° |
| 2026-05-04 13:08 | 17.23882 | 54.69190 | 6671 ft | 256 kts | 253° |
| 2026-05-04 13:08 | 17.23306 | 54.67432 | 6560 ft | 256 kts | 255° |
| 2026-05-04 13:08 | 17.22726 | 54.65666 | 6440 ft | 257 kts | 253° |
| 2026-05-04 13:08 | 17.22154 | 54.63917 | 6187 ft | 255 kts | 253° |
| 2026-05-04 13:09 | 17.21585 | 54.62173 | 6027 ft | 253 kts | 253° |
| 2026-05-04 13:09 | 17.21019 | 54.60440 | 6018 ft | 250 kts | 251° |
| 2026-05-04 13:09 | 17.20457 | 54.58729 | 6019 ft | 247 kts | 251° |
| 2026-05-04 13:09 | 17.19897 | 54.57024 | 6019 ft | 247 kts | 251° |
| 2026-05-04 13:10 | 17.19338 | 54.55322 | 6019 ft | 247 kts | 251° |
| 2026-05-04 13:10 | 17.18782 | 54.53624 | 6017 ft | 247 kts | 250° |
| 2026-05-04 13:10 | 17.18226 | 54.51925 | 6017 ft | 247 kts | 250° |
| 2026-05-04 13:10 | 17.17668 | 54.50227 | 6017 ft | 247 kts | 250° |
| 2026-05-04 13:11 | 17.17116 | 54.48549 | 6019 ft | 249 kts | 252° |
| 2026-05-04 13:11 | 17.16589 | 54.46825 | 5974 ft | 249 kts | 256° |
| 2026-05-04 13:11 | 17.16140 | 54.45086 | 5647 ft | 247 kts | 253° |
| 2026-05-04 13:11 | 17.15608 | 54.43380 | 5338 ft | 246 kts | 250° |
| 2026-05-04 13:12 | 17.15047 | 54.41704 | 4987 ft | 243 kts | 250° |
| 2026-05-04 13:12 | 17.14488 | 54.40034 | 4615 ft | 242 kts | 248° |
| 2026-05-04 13:12 | 17.13942 | 54.38397 | 4329 ft | 239 kts | 249° |
| 2026-05-04 13:12 | 17.13398 | 54.36766 | 4056 ft | 235 kts | 249° |
| 2026-05-04 13:13 | 17.12867 | 54.35174 | 3996 ft | 232 kts | 249° |
| 2026-05-04 13:13 | 17.12334 | 54.33577 | 4001 ft | 230 kts | 249° |
| 2026-05-04 13:13 | 17.11823 | 54.32043 | 3977 ft | 217 kts | 248° |
| 2026-05-04 13:13 | 17.11331 | 54.30568 | 3789 ft | 213 kts | 249° |
| 2026-05-04 13:14 | 17.10842 | 54.29106 | 3554 ft | 215 kts | 249° |
| 2026-05-04 13:14 | 17.10348 | 54.27628 | 3287 ft | 217 kts | 249° |
| 2026-05-04 13:14 | 17.09850 | 54.26137 | 3021 ft | 218 kts | 249° |
| 2026-05-04 13:14 | 17.09352 | 54.24647 | 2745 ft | 217 kts | 249° |
| 2026-05-04 13:15 | 17.08854 | 54.23156 | 2462 ft | 214 kts | 249° |
| 2026-05-04 13:15 | 17.08375 | 54.21723 | 2207 ft | 204 kts | 249° |
| 2026-05-04 13:15 | 17.07919 | 54.20359 | 1968 ft | 193 kts | 250° |
| 2026-05-04 13:15 | 17.07491 | 54.19078 | 1712 ft | 181 kts | 249° |
| 2026-05-04 13:16 | 17.07094 | 54.17893 | 1503 ft | 169 kts | 250° |
| 2026-05-04 13:16 | 17.06728 | 54.16798 | 1294 ft | 152 kts | 249° |
| 2026-05-04 13:16 | 17.06392 | 54.15796 | 1116 ft | 145 kts | 249° |
| 2026-05-04 13:16 | 17.06064 | 54.14813 | 944 ft | 141 kts | 248° |
| 2026-05-04 13:17 | 17.05738 | 54.13842 | 768 ft | 143 kts | 247° |
| 2026-05-04 13:17 | 17.05412 | 54.12871 | 627 ft | 141 kts | 247° |
| 2026-05-04 13:17 | 17.05096 | 54.11925 | 443 ft | 136 kts | 247° |
| 2026-05-04 13:17 | 17.04784 | 54.10986 | 246 ft | 137 kts | 246° |
| 2026-05-04 13:18 | 17.04475 | 54.10042 | 89 ft | 135 kts | 248° |
| 2026-05-04 13:18 | 17.04190 | 54.09243 | 72 ft | 94 kts | 251° |
| 2026-05-04 13:18 | 17.04036 | 54.08774 | 77 ft | 39 kts | 250° |
| 2026-05-04 13:18 | 17.03997 | 54.08605 | 76 ft | 21 kts | 266° |
| 2026-05-04 13:19 | 17.04013 | 54.08476 | 75 ft | 16 kts | 282° |
| 2026-05-04 13:19 | 17.04036 | 54.08387 | 67 ft | 10 kts | 298° |
| 2026-05-04 13:19 | 17.04085 | 54.08350 | 72 ft | 8 kts | 341° |
| 2026-05-04 13:19 | 17.04134 | 54.08360 | 73 ft | 7 kts | 38° |
| 2026-05-04 13:20 | 17.04152 | 54.08401 | 75 ft | 6 kts | 71° |
| 2026-05-04 13:20 | 17.04164 | 54.08437 | 76 ft | 5 kts | 71° |
| 2026-05-04 13:20 | 17.04180 | 54.08487 | 66 ft | 10 kts | 71° |
| 2026-05-04 13:20 | 17.04202 | 54.08555 | 71 ft | 9 kts | 71° |
| 2026-05-04 13:21 | 17.04222 | 54.08613 | 74 ft | 8 kts | 70° |
| 2026-05-04 13:21 | 17.04251 | 54.08656 | 65 ft | 7 kts | 36° |
| 2026-05-04 13:21 | 17.04294 | 54.08665 | 76 ft | 7 kts | 1° |
| 2026-05-04 13:21 | 17.04340 | 54.08685 | 67 ft | 7 kts | 49° |
| 2026-05-04 13:22 | 17.04355 | 54.08730 | 70 ft | 6 kts | 74° |
| 2026-05-04 13:22 | 17.04367 | 54.08769 | 69 ft | 5 kts | 70° |
| 2026-05-04 13:22 | 17.04378 | 54.08800 | 75 ft | 4 kts | 70° |
| 2026-05-04 13:22 | 17.04388 | 54.08828 | 69 ft | 5 kts | 70° |
| 2026-05-04 13:23 | 17.04401 | 54.08864 | 70 ft | 6 kts | 69° |
| 2026-05-04 13:23 | 17.04418 | 54.08912 | 70 ft | 9 kts | 71° |
| 2026-05-04 13:23 | 17.04441 | 54.08967 | 70 ft | 7 kts | 47° |
| 2026-05-04 13:23 | 17.04468 | 54.08982 | 75 ft | 4 kts | 355° |
| 2026-05-04 13:24 | 17.04503 | 54.08971 | 71 ft | 6 kts | 340° |
| 2026-05-04 13:24 | 17.04533 | 54.08959 | 77 ft | 3 kts | 339° |
| 2026-05-04 13:24 | 17.04539 | 54.08957 | 69 ft | 2 kts | 339° |
| 2026-05-04 13:25 | 17.04545 | 54.08954 | 71 ft | 0 kts | 339° |